Time;durP1;ratioP1;P1;durP2;ratioP2;P2;SDS_P1;SDS_P2;PMS_P1;PMS_P2;Temp;Humidity;BMP_temperature;BMP_pressure;BME280_temperature;BME280_humidity;BME280_pressure;Samples;Min_cycle;Max_cycle;Signal;HPM_P1;HPM_P2
2022/08/06 00:00:10;;;;;;;6.93;2.37;;;;;;;14.08;68.50;102387.31;5283532;28;20085;-72
2022/08/06 00:02:41;;;;;;;5.82;2.10;;;;;;;13.99;68.84;102380.38;5283511;28;20550;-73
2022/08/06 00:05:13;;;;;;;7.43;1.90;;;;;;;14.15;68.79;102389.06;5283725;28;20048;-72
2022/08/06 00:07:44;;;;;;;12.63;2.50;;;;;;;14.18;68.69;102390.81;5283854;28;20130;-72
2022/08/06 00:10:17;;;;;;;7.23;2.07;;;;;;;14.10;68.84;102389.94;5283603;28;20159;-72
2022/08/06 00:12:49;;;;;;;13.77;2.80;;;;;;;13.70;68.78;102388.25;5283679;28;20040;-72
2022/08/06 00:15:20;;;;;;;7.00;2.27;;;;;;;13.92;69.28;102393.47;5282695;28;20552;-72
2022/08/06 00:17:52;;;;;;;6.30;2.30;;;;;;;13.74;69.69;102391.75;5283520;28;20041;-72
2022/08/06 00:20:24;;;;;;;7.35;2.17;;;;;;;13.84;69.18;102390.84;5283498;28;20033;-72
2022/08/06 00:22:55;;;;;;;11.17;2.47;;;;;;;13.84;69.96;102389.09;5283262;28;20054;-72
2022/08/06 00:25:28;;;;;;;6.77;1.90;;;;;;;13.77;70.63;102400.47;5283544;28;20461;-73
2022/08/06 00:27:59;;;;;;;8.10;2.58;;;;;;;13.79;70.03;102400.47;5283151;28;20263;-72
2022/08/06 00:30:30;;;;;;;10.23;2.87;;;;;;;13.68;70.71;102403.09;5281969;28;20024;-72
2022/08/06 00:33:02;;;;;;;7.60;2.60;;;;;;;13.64;69.81;102411.84;5281991;28;20021;-72
2022/08/06 00:35:33;;;;;;;9.17;3.10;;;;;;;13.58;70.40;102409.19;5283154;28;20036;-72
2022/08/06 00:38:04;;;;;;;8.87;2.63;;;;;;;13.67;71.08;102409.22;5282879;28;20125;-72
2022/08/06 00:40:36;;;;;;;9.33;2.57;;;;;;;13.57;71.26;102407.44;5282925;28;20049;-72
2022/08/06 00:43:07;;;;;;;9.80;2.33;;;;;;;13.43;71.38;102416.19;5283122;28;20376;-72
2022/08/06 00:45:39;;;;;;;5.27;2.07;;;;;;;13.37;71.86;102408.31;5282951;28;20035;-72
2022/08/06 00:48:10;;;;;;;5.60;2.57;;;;;;;13.35;71.62;102412.66;5283145;28;20131;-73
2022/08/06 00:50:42;;;;;;;6.97;2.40;;;;;;;13.22;71.87;102418.72;5282798;28;20369;-72
2022/08/06 00:53:13;;;;;;;8.47;2.57;;;;;;;13.20;71.72;102423.97;5282775;28;20060;-72
2022/08/06 00:55:45;;;;;;;6.50;2.33;;;;;;;13.30;71.98;102424.84;5283051;28;20397;-72
2022/08/06 00:58:16;;;;;;;8.67;2.80;;;;;;;13.06;72.10;102425.66;5282941;28;20099;-72
2022/08/06 01:00:48;;;;;;;5.60;2.30;;;;;;;12.97;72.62;102431.72;5281041;28;20078;-72
2022/08/06 01:03:19;;;;;;;9.20;2.77;;;;;;;12.94;73.07;102431.72;5282503;28;20103;-72
2022/08/06 01:05:50;;;;;;;6.80;2.70;;;;;;;12.94;72.91;102435.22;5282455;28;20503;-73
2022/08/06 01:08:22;;;;;;;7.47;2.80;;;;;;;12.87;73.01;102441.28;5282684;28;20040;-72
2022/08/06 01:10:53;;;;;;;9.57;3.13;;;;;;;13.04;73.52;102443.09;5282646;28;20032;-72
2022/08/06 01:13:24;;;;;;;6.00;2.40;;;;;;;12.89;73.12;102447.41;5282591;28;20039;-72
2022/08/06 01:16:07;;;;;;;8.60;2.60;;;;;;;13.07;73.30;102456.19;5282594;28;20020;-73
2022/08/06 01:18:49;;;;;;;7.93;2.80;;;;;;;12.93;74.28;102454.41;5282854;28;20139;-73
2022/08/06 01:21:39;;;;;;;9.77;2.50;;;;;;;12.94;73.60;102458.78;5282623;28;20416;-73
2022/08/06 01:24:39;;;;;;;11.20;3.10;;;;;;;12.87;73.83;102461.38;5282287;28;20037;-73
2022/08/06 01:27:38;;;;;;;7.63;2.70;;;;;;;12.79;74.07;102463.06;5282579;28;20134;-73
2022/08/06 01:30:15;;;;;;;8.02;2.80;;;;;;;12.67;75.16;102456.00;5281817;28;20033;-73
2022/08/06 01:32:54;;;;;;;8.57;2.78;;;;;;;12.67;75.32;102456.00;5282780;28;20377;-73
2022/08/06 01:35:29;;;;;;;7.45;2.40;;;;;;;12.61;75.29;102454.25;5282217;28;20021;-73
2022/08/06 01:38:24;;;;;;;8.05;2.60;;;;;;;12.61;75.32;102459.50;5282150;28;20036;-73
2022/08/06 01:40:59;;;;;;;6.60;2.55;;;;;;;12.64;75.66;102454.28;5281824;28;20064;-72
2022/08/06 01:43:33;;;;;;;6.32;2.65;;;;;;;12.56;75.29;102455.97;5282322;28;20078;-72
2022/08/06 01:46:07;;;;;;;8.18;2.67;;;;;;;12.54;75.50;102452.44;5282245;28;20033;-72
2022/08/06 01:48:40;;;;;;;6.65;2.40;;;;;;;12.37;75.81;102453.22;5282011;28;20043;-72
2022/08/06 01:51:12;;;;;;;10.25;2.45;;;;;;;12.45;75.88;102458.50;5281854;28;20049;-72
2022/08/06 01:53:44;;;;;;;9.03;4.03;;;;;;;12.38;75.88;102457.59;5282084;28;20043;-72
2022/08/06 01:56:17;;;;;;;9.32;2.55;;;;;;;12.40;75.85;102452.38;5282516;28;20731;-72
2022/08/06 01:58:51;;;;;;;6.88;2.60;;;;;;;12.44;76.34;102459.38;5282236;28;20094;-73
2022/08/06 02:01:25;;;;;;;7.25;2.75;;;;;;;12.43;76.97;102467.22;5280215;28;20064;-72
2022/08/06 02:03:58;;;;;;;9.52;2.80;;;;;;;12.35;76.88;102461.94;5281825;28;20129;-73
2022/08/06 02:06:34;;;;;;;5.88;2.50;;;;;;;12.26;77.08;102459.25;5282000;28;20358;-72
2022/08/06 02:09:12;;;;;;;8.05;3.00;;;;;;;12.16;77.72;102461.81;5281767;28;20047;-73
2022/08/06 02:11:50;;;;;;;5.30;2.40;;;;;;;12.14;77.49;102458.31;5280612;28;20485;-73
2022/08/06 02:14:24;;;;;;;9.02;3.50;;;;;;;12.19;77.68;102467.06;5282046;28;20039;-73
2022/08/06 02:16:59;;;;;;;6.50;2.70;;;;;;;12.01;78.04;102465.19;5282309;28;20024;-73
2022/08/06 02:19:32;;;;;;;8.40;3.28;;;;;;;12.05;77.98;102463.47;5281700;28;20119;-74
2022/08/06 02:22:04;;;;;;;9.85;2.90;;;;;;;12.10;77.92;102460.88;5281879;28;20389;-73
2022/08/06 02:24:36;;;;;;;7.68;2.95;;;;;;;12.07;77.92;102468.69;5281562;28;20044;-73
2022/08/06 02:27:10;;;;;;;8.77;2.70;;;;;;;12.14;78.63;102470.50;5281809;28;20032;-72
2022/08/06 02:29:44;;;;;;;8.13;2.90;;;;;;;12.03;79.01;102466.06;5281941;28;20033;-76
2022/08/06 02:32:16;;;;;;;6.35;2.30;;;;;;;12.01;78.76;102466.91;5281748;28;20035;-72
2022/08/06 02:34:48;;;;;;;6.47;2.50;;;;;;;11.85;78.68;102471.13;5281436;28;20035;-72
2022/08/06 02:37:45;;;;;;;6.17;2.40;;;;;;;12.01;79.01;102461.66;5282728;28;20032;-72
2022/08/06 02:40:21;;;;;;;7.90;2.53;;;;;;;11.95;79.31;102461.66;5285312;28;20086;-72
2022/08/06 02:43:01;;;;;;;9.45;2.95;;;;;;;11.82;79.78;102471.09;5285730;28;20439;-72
2022/08/06 02:45:46;;;;;;;7.85;2.75;;;;;;;11.83;79.59;102471.09;5285172;28;20033;-72
2022/08/06 02:48:26;;;;;;;8.05;2.47;;;;;;;11.80;80.03;102467.56;5285512;28;20039;-72
2022/08/06 02:51:01;;;;;;;8.40;2.90;;;;;;;11.73;79.88;102466.63;5285480;28;20419;-72
2022/08/06 02:53:42;;;;;;;6.13;2.38;;;;;;;11.65;80.23;102468.28;5285078;28;20103;-73
2022/08/06 02:56:14;;;;;;;6.25;2.70;;;;;;;11.71;80.21;102459.66;5285262;28;20029;-72
2022/08/06 02:58:52;;;;;;;8.10;4.22;;;;;;;11.53;80.42;102458.63;5285317;28;20032;-73
2022/08/06 03:01:29;;;;;;;5.38;2.30;;;;;;;11.56;80.82;102463.88;5285007;28;20388;-72
2022/08/06 03:04:02;;;;;;;7.03;2.80;;;;;;;11.54;80.79;102465.56;5284843;28;20074;-73
2022/08/06 03:06:36;;;;;;;9.15;4.07;;;;;;;11.50;81.04;102469.91;5284833;28;20522;-72
2022/08/06 03:09:10;;;;;;;7.55;2.63;;;;;;;11.48;81.33;102470.75;5283539;28;20455;-72
2022/08/06 03:11:44;;;;;;;7.18;3.13;;;;;;;11.34;80.99;102475.81;5284756;28;20024;-73
2022/08/06 03:14:17;;;;;;;7.80;2.88;;;;;;;11.32;81.00;102473.19;5284707;28;20024;-72
2022/08/06 03:16:49;;;;;;;;;;;;;;;11.60;78.74;102476.09;5285206;28;20033;-73
2022/08/06 03:19:22;;;;;;;5.22;2.67;;;;;;;11.33;80.65;102481.88;5284800;28;19909;-73
2022/08/06 03:21:55;;;;;;;11.48;3.00;;;;;;;11.29;80.83;102480.97;5284770;28;20534;-73
2022/08/06 03:24:28;;;;;;;6.47;3.13;;;;;;;11.23;81.34;102482.66;5284916;28;20064;-73
2022/08/06 03:27:00;;;;;;;;;;;;;;;11.47;79.07;102485.53;5285211;28;20029;-72
2022/08/06 03:29:33;;;;;;;5.80;2.60;;;;;;;11.21;81.08;102489.59;5284570;28;20252;-73
2022/08/06 03:32:08;;;;;;;5.63;2.72;;;;;;;11.18;81.49;102487.81;5284118;28;20100;-72
2022/08/06 03:34:40;;;;;;;6.68;3.00;;;;;;;11.08;81.58;102489.44;5284665;28;20111;-72
2022/08/06 03:37:13;;;;;;;;;;;;;;;11.35;79.65;102489.75;5284884;28;20389;-73
2022/08/06 03:39:46;;;;;;;7.03;3.15;;;;;;;11.18;81.58;102495.66;5283725;28;20279;-73
2022/08/06 03:42:17;;;;;;;7.80;2.60;;;;;;;11.14;82.22;102493.88;5284200;28;20032;-73
2022/08/06 03:44:49;;;;;;;6.17;3.17;;;;;;;11.00;82.02;102492.81;5284398;28;20366;-73
2022/08/06 03:47:32;;;;;;;10.47;2.53;;;;;;;11.09;82.81;102485.97;5284241;28;20025;-73
2022/08/06 03:50:09;;;;;;;7.25;2.97;;;;;;;11.06;83.25;102498.09;5283944;28;20099;-73
2022/08/06 03:52:48;;;;;;;6.00;2.53;;;;;;;11.10;83.45;102495.53;5284179;28;20029;-72
2022/08/06 03:55:26;;;;;;;5.35;2.60;;;;;;;11.07;83.63;102505.94;5284001;28;20036;-73
2022/08/06 03:58:01;;;;;;;8.10;2.95;;;;;;;11.01;83.53;102500.66;5284066;28;20025;-73
2022/08/06 04:00:46;;;;;;;9.10;3.10;;;;;;;11.02;83.49;102509.38;5283163;28;20032;-73
2022/08/06 04:03:19;;;;;;;8.88;2.70;;;;;;;10.99;83.34;102511.94;5283787;28;20027;-73
2022/08/06 04:05:53;;;;;;;7.05;3.30;;;;;;;10.91;83.59;102509.22;5283530;28;20472;-73
2022/08/06 04:08:25;;;;;;;9.13;3.65;;;;;;;10.89;83.98;102511.81;5283699;28;20024;-73
2022/08/06 04:10:58;;;;;;;7.30;2.85;;;;;;;10.94;84.14;102520.56;5283385;28;20440;-73
2022/08/06 04:13:29;;;;;;;9.35;3.28;;;;;;;11.00;84.21;102517.16;5283402;28;20066;-73
2022/08/06 04:16:01;;;;;;;7.13;3.27;;;;;;;10.95;84.01;102517.09;5283385;28;20062;-73
2022/08/06 04:18:36;;;;;;;6.47;3.53;;;;;;;10.93;84.32;102524.03;5283427;28;20474;-73
2022/08/06 04:21:20;;;;;;;6.47;3.20;;;;;;;10.98;85.27;102521.50;5283138;28;20274;-73
2022/08/06 04:23:52;;;;;;;8.18;3.97;;;;;;;10.99;84.99;102525.84;5283287;28;20086;-73
2022/08/06 04:26:27;;;;;;;7.60;3.70;;;;;;;10.93;85.03;102528.38;5283056;28;20040;-73
2022/08/06 04:29:00;;;;;;;11.55;4.07;;;;;;;10.89;84.72;102531.81;5283067;28;20453;-73
2022/08/06 04:31:33;;;;;;;8.50;3.83;;;;;;;10.83;85.22;102532.56;5282520;28;20037;-73
2022/08/06 04:34:06;;;;;;;6.97;3.08;;;;;;;10.95;85.63;102537.13;5283205;28;20037;-73
2022/08/06 04:36:38;;;;;;;7.35;3.50;;;;;;;11.00;85.59;102532.81;5282008;28;20032;-73
2022/08/06 04:39:10;;;;;;;11.33;4.00;;;;;;;10.92;85.23;102532.72;5283065;28;20426;-73
2022/08/06 04:41:42;;;;;;;8.67;3.57;;;;;;;10.94;85.03;102538.81;5282520;28;20093;-73
2022/08/06 04:44:13;;;;;;;8.25;3.30;;;;;;;11.07;85.50;102532.03;5282676;28;20082;-73
2022/08/06 04:46:48;;;;;;;11.33;4.37;;;;;;;10.99;84.86;102545.84;5264963;28;20041;-73
2022/08/06 04:49:20;;;;;;;6.55;3.63;;;;;;;10.97;84.64;102538.00;5282531;28;20104;-73
2022/08/06 04:51:51;;;;;;;8.67;3.83;;;;;;;10.90;84.63;102539.66;5282486;28;20047;-73
2022/08/06 04:54:23;;;;;;;7.27;3.63;;;;;;;11.05;85.39;102541.59;5281727;28;20024;-73
2022/08/06 04:56:54;;;;;;;8.13;3.50;;;;;;;11.07;85.39;102549.44;5283056;28;20060;-74
2022/08/06 04:59:25;;;;;;;7.90;3.87;;;;;;;11.08;85.11;102549.47;5282435;28;20024;-73
2022/08/06 05:01:57;;;;;;;7.70;4.03;;;;;;;11.16;85.59;102553.91;5281930;28;20032;-73
2022/08/06 05:04:29;;;;;;;7.53;4.07;;;;;;;11.21;85.74;102554.84;5282481;28;20400;-73
2022/08/06 05:07:00;;;;;;;8.05;3.70;;;;;;;11.26;85.80;102553.19;5264509;28;20036;-74
2022/08/06 05:09:32;;;;;;;9.10;4.27;;;;;;;11.28;85.84;102554.06;5282314;28;20041;-73
2022/08/06 05:12:11;;;;;;;8.23;4.40;;;;;;;11.26;85.29;102555.78;5282527;28;20025;-72
2022/08/06 05:14:46;;;;;;;9.73;4.05;;;;;;;11.34;85.79;102566.34;5282498;28;20429;-74
2022/08/06 05:17:21;;;;;;;9.23;3.78;;;;;;;11.32;85.56;102558.47;5282364;28;20430;-74
2022/08/06 05:19:59;;;;;;;9.70;3.80;;;;;;;11.42;85.71;102560.34;5282116;28;20036;-74
2022/08/06 05:22:32;;;;;;;5.50;3.25;;;;;;;11.50;86.35;102566.53;5282519;28;20052;-74
2022/08/06 05:25:05;;;;;;;8.60;4.00;;;;;;;11.58;86.42;102568.38;5282516;28;20037;-75
2022/08/06 05:27:37;;;;;;;10.52;3.90;;;;;;;11.59;85.17;102564.88;5282121;28;20029;-75
2022/08/06 05:30:09;;;;;;;8.77;4.13;;;;;;;11.67;85.56;102571.06;5281550;28;20090;-73
2022/08/06 05:32:46;;;;;;;12.80;4.80;;;;;;;11.78;85.89;102573.78;5282132;28;20025;-74
2022/08/06 05:35:18;;;;;;;10.15;3.97;;;;;;;11.89;84.79;102577.41;5264790;28;20392;-74
2022/08/06 05:37:49;;;;;;;8.93;4.17;;;;;;;11.97;85.32;102575.78;5267859;28;20036;-75
2022/08/06 05:40:20;;;;;;;9.03;4.27;;;;;;;12.10;84.30;102575.91;5280924;28;20056;-75
2022/08/06 05:42:52;;;;;;;8.73;3.97;;;;;;;12.18;84.15;102579.47;5280123;28;20108;-75
2022/08/06 05:45:23;;;;;;;10.97;4.10;;;;;;;12.28;84.71;102570.84;5263021;28;20060;-74
2022/08/06 05:47:58;;;;;;;12.83;4.20;;;;;;;12.37;84.66;102581.38;5279464;28;20028;-75
2022/08/06 05:50:37;;;;;;;9.32;4.10;;;;;;;12.48;85.19;102583.22;5280262;28;20473;-75
2022/08/06 05:53:13;;;;;;;7.68;3.33;;;;;;;12.56;84.67;102582.41;5272940;28;20029;-76
2022/08/06 05:55:51;;;;;;;7.65;3.50;;;;;;;12.67;83.38;102582.50;5259697;28;20025;-76
2022/08/06 05:58:35;;;;;;;10.05;4.20;;;;;;;12.67;82.83;102579.88;5258532;28;20063;-74
2022/08/06 06:01:08;;;;;;;10.40;3.67;;;;;;;12.76;83.37;102589.53;5260465;28;20040;-75
2022/08/06 06:03:41;;;;;;;12.15;4.00;;;;;;;12.75;81.95;102588.66;5258999;28;20032;-79
2022/08/06 06:06:12;;;;;;;8.68;3.30;;;;;;;12.87;82.03;102594.84;5261858;28;20120;-76
2022/08/06 06:08:44;;;;;;;11.70;3.30;;;;;;;12.89;81.61;102585.25;5269142;28;20108;-76
2022/08/06 06:11:16;;;;;;;6.87;3.27;;;;;;;12.96;81.75;102594.91;5279288;28;20029;-76
2022/08/06 06:13:49;;;;;;;10.82;3.58;;;;;;;13.04;82.08;102597.53;5284109;28;20039;-76
2022/08/06 06:16:29;;;;;;;9.75;4.15;;;;;;;13.08;81.54;102601.94;5284266;28;20036;-76
2022/08/06 06:19:06;;;;;;;11.68;3.25;;;;;;;13.16;81.22;102599.38;5283630;28;20064;-75
2022/08/06 06:21:52;;;;;;;13.40;3.88;;;;;;;13.28;79.97;102599.44;5276671;28;20021;-76
2022/08/06 06:24:33;;;;;;;13.15;3.65;;;;;;;13.37;81.01;102598.66;5263968;28;20060;-76
2022/08/06 06:27:17;;;;;;;13.35;3.53;;;;;;;13.40;79.79;102596.91;5263279;28;20032;-75
2022/08/06 06:29:57;;;;;;;10.73;3.13;;;;;;;13.48;79.67;102599.56;5264204;28;20105;-76
2022/08/06 06:32:49;;;;;;;6.80;3.00;;;;;;;13.55;79.19;102600.47;5261810;28;20033;-75
2022/08/06 06:35:37;;;;;;;11.85;3.47;;;;;;;13.64;78.34;102609.22;5264444;28;20057;-75
2022/08/06 06:38:23;;;;;;;10.27;3.28;;;;;;;13.75;79.91;102609.28;5264013;28;20492;-74
2022/08/06 06:41:02;;;;;;;11.40;3.20;;;;;;;13.84;79.51;102609.28;5264036;28;20048;-75
2022/08/06 06:43:49;;;;;;;7.35;3.28;;;;;;;14.00;80.11;102610.19;5264006;28;20484;-74
2022/08/06 06:46:38;;;;;;;10.02;3.00;;;;;;;14.10;78.21;102612.84;5264438;28;20090;-75
2022/08/06 06:49:17;;;;;;;8.65;3.70;;;;;;;14.22;80.02;102618.97;5263600;28;20083;-75
2022/08/06 06:51:55;;;;;;;6.75;2.38;;;;;;;14.38;76.39;102619.00;5264019;28;20117;-74
2022/08/06 06:54:35;;;;;;;8.80;2.50;;;;;;;14.49;75.63;102619.91;5264025;28;20163;-75
2022/08/06 06:57:11;;;;;;;8.43;2.60;;;;;;;14.63;75.94;102612.03;5263805;28;20025;-75
2022/08/06 06:59:47;;;;;;;6.82;2.13;;;;;;;14.72;77.70;102611.16;5264086;28;20112;-74
2022/08/06 07:02:24;;;;;;;6.05;1.95;;;;;;;14.90;75.33;102605.88;5262599;28;20372;-74
2022/08/06 07:04:56;;;;;;;7.93;2.20;;;;;;;15.01;74.79;102605.88;5264231;28;20033;-75
2022/08/06 07:07:31;;;;;;;4.70;1.80;;;;;;;15.13;74.00;102612.84;5263383;28;20094;-75
2022/08/06 07:10:07;;;;;;;7.55;1.95;;;;;;;15.21;73.79;102607.56;5263431;28;20567;-75
2022/08/06 07:12:42;;;;;;;4.03;1.38;;;;;;;15.36;72.04;102609.25;5263012;28;20037;-76
2022/08/06 07:15:15;;;;;;;4.80;1.38;;;;;;;15.58;70.85;102615.31;5263860;28;20420;-75
2022/08/06 07:17:49;;;;;;;5.38;1.35;;;;;;;15.60;68.43;102627.59;5261757;28;20044;-75
2022/08/06 07:20:24;;;;;;;6.95;1.30;;;;;;;15.69;69.47;102624.03;5263309;28;20112;-75
2022/08/06 07:22:59;;;;;;;5.18;1.67;;;;;;;15.79;70.96;102627.50;5269988;28;20111;-76
2022/08/06 07:25:36;;;;;;;4.25;1.60;;;;;;;15.88;69.13;102634.50;5284581;28;20373;-76
2022/08/06 07:28:12;;;;;;;4.38;2.50;;;;;;;15.95;69.78;102631.78;5283808;28;20111;-76
2022/08/06 07:30:45;;;;;;;5.10;1.38;;;;;;;16.06;68.18;102634.38;5268353;28;20070;-76
2022/08/06 07:33:18;;;;;;;2.88;1.10;;;;;;;16.17;67.53;102648.34;5267604;28;20106;-75
2022/08/06 07:35:50;;;;;;;;;;;;;;;16.30;68.37;102637.75;5271207;28;20083;-76
2022/08/06 07:38:27;;;;;;;3.95;1.50;;;;;;;16.28;65.76;102636.88;5265738;28;19909;-75
2022/08/06 07:41:02;;;;;;;4.38;1.77;;;;;;;16.45;65.15;102642.00;5262164;28;20083;-76
2022/08/06 07:43:51;;;;;;;5.13;1.52;;;;;;;16.52;65.55;102646.34;5260200;28;20437;-76
2022/08/06 07:46:28;;;;;;;5.65;1.60;;;;;;;16.55;66.76;102647.19;5260772;28;20029;-76
2022/08/06 07:49:06;;;;;;;7.10;1.70;;;;;;;16.76;65.67;102647.91;5260578;28;20503;-75
2022/08/06 07:51:43;;;;;;;4.90;1.65;;;;;;;16.77;65.09;102649.63;5262619;28;20061;-75
2022/08/06 07:54:15;;;;;;;6.07;1.55;;;;;;;16.78;65.04;102646.13;5267302;28;20036;-75
2022/08/06 07:56:47;;;;;;;6.72;1.70;;;;;;;16.92;65.80;102651.28;5278668;28;20033;-76
2022/08/06 07:59:20;;;;;;;6.18;2.15;;;;;;;16.92;64.14;102657.44;5271979;28;20024;-75
2022/08/06 08:01:52;;;;;;;6.32;1.90;;;;;;;16.89;63.60;102651.34;5269464;28;20111;-76
2022/08/06 08:07:14;;;;;;;3.47;1.20;;;;;;;17.17;63.69;102654.53;5268266;28;20037;-77
2022/08/06 08:09:47;;;;;;;5.47;1.55;;;;;;;17.18;63.18;102655.41;5266174;28;20470;-75
2022/08/06 08:12:19;;;;;;;3.92;1.30;;;;;;;17.11;63.01;102652.88;5260886;28;20127;-76
2022/08/06 08:14:51;;;;;;;3.80;1.30;;;;;;;17.24;62.09;102660.63;5261988;28;20033;-76
2022/08/06 08:17:23;;;;;;;;;;;;;;;17.49;63.06;102656.81;5259183;28;20065;-80
2022/08/06 08:19:54;;;;;;;5.85;1.50;;;;;;;17.38;61.11;102661.34;5262426;28;19947;-76
2022/08/06 08:22:25;;;;;;;2.17;1.13;;;;;;;17.58;59.72;102657.59;5262137;28;20103;-75
2022/08/06 08:24:57;;;;;;;3.07;1.07;;;;;;;17.60;58.13;102664.59;5262631;28;20029;-75
2022/08/06 08:27:28;;;;;;;8.13;1.20;;;;;;;17.57;60.16;102661.16;5261632;28;20059;-76
2022/08/06 08:30:00;;;;;;;4.73;1.47;;;;;;;17.77;59.88;102666.16;5261550;28;20488;-75
2022/08/06 08:32:31;;;;;;;3.50;1.40;;;;;;;17.68;59.29;102654.84;5261692;28;20447;-75
2022/08/06 08:35:03;;;;;;;3.97;1.43;;;;;;;17.57;55.94;102664.66;5261617;28;20029;-76
2022/08/06 08:37:34;;;;;;;3.93;1.53;;;;;;;17.61;57.18;102663.72;5261254;28;20111;-75
2022/08/06 08:40:06;;;;;;;3.13;1.60;;;;;;;17.71;57.67;102663.59;5262037;28;20056;-75
2022/08/06 08:42:46;;;;;;;5.70;1.60;;;;;;;17.64;57.97;102655.75;5261995;28;20041;-74
2022/08/06 08:45:17;;;;;;;6.28;1.42;;;;;;;18.02;59.84;102664.97;5261243;28;20060;-75
2022/08/06 08:47:53;;;;;;;8.60;1.60;;;;;;;18.31;57.86;102666.31;5261116;28;20029;-75
2022/08/06 08:50:29;;;;;;;6.28;2.42;;;;;;;18.53;56.96;102665.97;5262114;28;20063;-75
2022/08/06 08:53:08;;;;;;;3.60;1.23;;;;;;;18.45;54.10;102663.47;5263509;28;20099;-75
2022/08/06 08:55:40;;;;;;;2.97;1.35;;;;;;;18.48;51.11;102666.06;5274874;28;20045;-75
2022/08/06 08:58:13;;;;;;;5.00;1.50;;;;;;;18.62;53.97;102663.19;5262157;28;20029;-74
2022/08/06 09:00:45;;;;;;;3.17;1.58;;;;;;;19.00;52.93;102656.41;5261324;28;20082;-75
2022/08/06 09:03:17;;;;;;;3.33;1.23;;;;;;;19.10;53.44;102657.09;5260010;28;20025;-75
2022/08/06 09:05:49;;;;;;;6.22;1.38;;;;;;;19.00;53.67;102661.69;5262097;28;20059;-74
2022/08/06 09:08:21;;;;;;;5.13;1.20;;;;;;;18.80;53.53;102669.91;5259748;28;20033;-76
2022/08/06 09:10:52;;;;;;;3.95;1.30;;;;;;;18.82;53.89;102672.53;5260420;28;20116;-77
2022/08/06 09:13:25;;;;;;;4.70;1.88;;;;;;;18.86;50.71;102677.78;5261120;28;20120;-75
2022/08/06 09:15:57;;;;;;;2.22;1.20;;;;;;;18.70;52.80;102670.97;5261830;28;20040;-75
2022/08/06 09:18:29;;;;;;;4.63;1.38;;;;;;;18.63;52.17;102677.25;5260786;28;20029;-76
2022/08/06 09:21:01;;;;;;;4.30;1.30;;;;;;;18.55;54.31;102680.91;5261573;28;20501;-75
2022/08/06 09:23:33;;;;;;;;;;;;;;;18.77;54.42;102683.16;5261292;28;20025;-76
2022/08/06 09:26:05;;;;;;;4.55;1.40;;;;;;;18.40;53.80;102684.66;5260118;28;20031;-76
2022/08/06 09:28:39;;;;;;;3.05;1.00;;;;;;;18.48;51.93;102689.84;5260736;28;20028;-76
2022/08/06 09:31:14;;;;;;;5.10;1.35;;;;;;;18.90;49.99;102684.75;5261003;28;20029;-76
2022/08/06 09:34:02;;;;;;;2.65;1.13;;;;;;;19.19;49.26;102678.06;5260953;28;20154;-76
2022/08/06 09:36:42;;;;;;;3.15;1.48;;;;;;;19.24;49.06;102675.31;5260478;28;20029;-76
2022/08/06 09:39:14;;;;;;;4.35;1.10;;;;;;;19.69;52.34;102680.63;5261072;28;20139;-76
2022/08/06 09:41:47;;;;;;;2.57;1.50;;;;;;;20.12;47.66;102673.53;5271422;28;20505;-76
2022/08/06 09:44:18;;;;;;;6.65;1.40;;;;;;;20.35;48.29;102672.97;5262012;28;20785;-76
2022/08/06 09:46:50;;;;;;;3.27;1.17;;;;;;;20.65;48.03;102676.69;5263550;28;20111;-76
2022/08/06 09:49:21;;;;;;;2.80;1.23;;;;;;;21.05;44.66;102670.38;5265299;28;20025;-76
2022/08/06 09:52:12;;;;;;;5.30;1.63;;;;;;;21.43;44.41;102672.84;5265535;28;20040;-80
2022/08/06 09:54:46;;;;;;;2.97;1.05;;;;;;;21.10;43.54;102678.19;5265596;28;20025;-76
2022/08/06 09:57:18;;;;;;;3.28;1.55;;;;;;;20.49;44.46;102685.91;5264887;28;20029;-76
2022/08/06 09:59:49;;;;;;;2.57;1.13;;;;;;;20.37;43.85;102687.94;5265310;28;20107;-77
2022/08/06 10:02:21;;;;;;;3.40;1.27;;;;;;;20.14;45.91;102682.31;5264696;28;20048;-76
2022/08/06 10:04:52;;;;;;;2.77;0.90;;;;;;;20.26;45.96;102682.03;5264366;28;20091;-76
2022/08/06 10:07:32;;;;;;;5.93;1.37;;;;;;;21.01;42.56;102683.75;5265056;28;20037;-76
2022/08/06 10:10:05;;;;;;;3.45;1.20;;;;;;;21.76;41.50;102676.34;5265709;28;20386;-75
2022/08/06 10:12:36;;;;;;;4.10;1.30;;;;;;;21.82;39.43;102680.63;5264608;28;20029;-76
2022/08/06 10:15:08;;;;;;;1.70;0.87;;;;;;;21.25;41.42;102680.44;5265565;28;20036;-76
2022/08/06 10:17:45;;;;;;;5.73;1.20;;;;;;;21.38;41.13;102677.44;5264943;28;20029;-76
2022/08/06 10:20:18;;;;;;;1.90;0.90;;;;;;;22.86;39.43;102679.09;5265527;28;20102;-76
2022/08/06 10:22:51;;;;;;;3.03;1.50;;;;;;;24.29;36.06;102672.88;5264440;28;20478;-76
2022/08/06 10:25:24;;;;;;;2.83;0.90;;;;;;;25.29;32.81;102675.78;5265208;28;20036;-76
2022/08/06 10:27:58;;;;;;;5.93;1.00;;;;;;;25.50;34.22;102671.25;5264510;28;20040;-76
2022/08/06 10:30:30;;;;;;;2.28;1.05;;;;;;;25.91;31.46;102665.78;5264405;28;20441;-76
2022/08/06 10:33:11;;;;;;;1.90;1.10;;;;;;;26.30;33.06;102669.31;5264668;28;20116;-76
2022/08/06 10:35:45;;;;;;;4.07;1.30;;;;;;;26.26;33.08;102654.34;5265463;28;20029;-77
2022/08/06 10:38:21;;;;;;;2.30;0.90;;;;;;;25.94;28.91;102662.13;5264314;28;20035;-77
2022/08/06 10:40:53;;;;;;;1.90;1.05;;;;;;;25.79;29.87;102659.25;5264626;28;20053;-77
2022/08/06 10:43:27;;;;;;;2.05;1.00;;;;;;;24.56;31.39;102656.72;5263879;28;20465;-76
2022/08/06 10:45:59;;;;;;;3.65;1.02;;;;;;;23.29;36.35;102650.97;5264653;28;20469;-76
2022/08/06 10:48:31;;;;;;;;;;;;;;;24.80;35.47;102651.25;5268123;28;20032;-76
2022/08/06 10:51:07;;;;;;;2.57;1.10;;;;;;;25.39;34.33;102654.88;5282170;28;19973;-76
2022/08/06 10:53:41;;;;;;;3.75;1.25;;;;;;;25.90;28.87;102656.03;5283862;28;20503;-78
2022/08/06 10:56:15;;;;;;;1.75;0.88;;;;;;;26.62;28.23;102658.78;5283276;28;20025;-77
2022/08/06 10:58:48;;;;;;;3.25;0.93;;;;;;;27.29;27.55;102649.06;5282008;28;20032;-76
2022/08/06 11:01:46;;;;;;;4.10;1.13;;;;;;;28.12;29.07;102655.16;5272021;28;20048;-77
2022/08/06 11:04:33;;;;;;;2.30;0.98;;;;;;;28.56;27.03;102651.69;5261955;28;20028;-77
2022/08/06 11:07:27;;;;;;;4.63;1.42;;;;;;;29.28;27.25;102648.28;5263130;28;20101;-76
2022/08/06 11:10:32;;;;;;;2.58;1.10;;;;;;;30.14;25.66;102650.78;5263189;28;20069;-78
2022/08/06 11:13:25;;;;;;;1.23;1.00;;;;;;;29.57;26.83;102642.88;5261961;28;20056;-76
2022/08/06 11:15:56;;;;;;;2.20;1.10;;;;;;;29.87;27.87;102639.19;5275619;28;20094;-76
2022/08/06 11:18:28;;;;;;;;;;;;;;;31.27;26.23;102641.25;5268746;28;20441;-76
2022/08/06 11:21:01;;;;;;;1.43;0.97;;;;;;;27.44;29.03;102639.34;5283335;28;19912;-75
2022/08/06 11:23:33;;;;;;;3.05;1.10;;;;;;;26.65;29.15;102643.47;5283428;28;20279;-75
2022/08/06 11:26:06;;;;;;;;;;;;;;;29.03;28.15;102639.03;5285000;28;20135;-75
2022/08/06 11:28:37;;;;;;;4.80;1.20;;;;;;;29.54;26.25;102635.84;5282127;28;19959;-75
2022/08/06 11:31:28;;;;;;;;;;;;;;;31.87;25.87;102633.34;5274794;28;20744;-75
2022/08/06 11:34:05;;;;;;;2.38;0.90;;;;;;;30.84;25.51;102629.94;5263249;28;19923;-75
2022/08/06 11:36:49;;;;;;;3.17;1.27;;;;;;;32.10;25.66;102633.47;5263667;28;20036;-73
2022/08/06 11:39:22;;;;;;;3.47;1.00;;;;;;;31.82;22.21;102632.81;5262236;28;20063;-73
2022/08/06 11:41:59;;;;;;;1.08;0.85;;;;;;;29.94;30.04;102629.75;5261321;28;20130;-77
2022/08/06 11:44:34;;;;;;;3.83;1.50;;;;;;;29.95;24.50;102626.09;5262559;28;20083;-75
2022/08/06 11:47:11;;;;;;;3.40;1.65;;;;;;;30.70;29.41;102623.72;5262285;28;20033;-74
2022/08/06 11:49:45;;;;;;;4.05;1.15;;;;;;;31.61;22.50;102621.78;5262294;28;20108;-74
2022/08/06 11:52:31;;;;;;;1.55;1.10;;;;;;;32.50;23.25;102628.56;5270601;28;20032;-75
2022/08/06 11:55:06;;;;;;;2.78;1.00;;;;;;;32.20;23.83;102628.22;5265903;28;20033;-75
2022/08/06 11:57:40;;;;;;;0.93;0.85;;;;;;;33.57;22.26;102630.94;5270358;28;20033;-77
2022/08/06 12:00:15;;;;;;;3.35;1.67;;;;;;;32.54;20.27;102615.72;5271277;28;20050;-73
2022/08/06 12:02:53;;;;;;;2.13;1.10;;;;;;;32.27;23.77;102621.41;5274227;28;20126;-73
2022/08/06 12:05:24;;;;;;;1.27;1.00;;;;;;;33.65;20.68;102614.09;5273595;28;20028;-74